Time;durP1;ratioP1;P1;durP2;ratioP2;P2;SDS_P1;SDS_P2;PMS_P1;PMS_P2;Temp;Humidity;BMP_temperature;BMP_pressure;BME280_temperature;BME280_humidity;BME280_pressure;Samples;Min_cycle;Max_cycle;Signal;HPM_P1;HPM_P2
2021/10/11 00:00:25;;;;;;;27.40;20.13;;;;;;;6.67;100.00;100324.38;5113672;28;20225;-76
2021/10/11 00:02:52;;;;;;;25.33;20.25;;;;;;;6.38;100.00;100334.19;5111649;28;20275;-75
2021/10/11 00:05:21;;;;;;;26.40;20.00;;;;;;;6.39;100.00;100330.56;5114418;28;20243;-75
2021/10/11 00:07:47;;;;;;;27.40;19.67;;;;;;;6.34;100.00;100321.81;5118436;28;20286;-77
2021/10/11 00:10:19;;;;;;;25.42;19.55;;;;;;;6.36;100.00;100311.94;5119000;28;20644;-75
2021/10/11 00:12:47;;;;;;;26.58;21.08;;;;;;;6.24;100.00;100304.25;5115159;28;20222;-76
2021/10/11 00:15:13;;;;;;;26.30;20.80;;;;;;;6.48;100.00;100308.91;5115465;28;21952;-76
2021/10/11 00:17:40;;;;;;;24.92;19.42;;;;;;;6.51;100.00;100321.31;5115309;28;20187;-77
2021/10/11 00:20:07;;;;;;;24.48;19.58;;;;;;;6.44;100.00;100309.03;5117351;28;20266;-77
2021/10/11 00:22:36;;;;;;;23.40;18.83;;;;;;;6.66;100.00;100325.34;5116977;28;20287;-74
2021/10/11 00:25:04;;;;;;;26.60;18.63;;;;;;;6.51;100.00;100326.66;5119779;28;20266;-76
2021/10/11 00:27:31;;;;;;;26.27;19.40;;;;;;;6.56;100.00;100321.19;5119304;28;20198;-76
2021/10/11 00:29:57;;;;;;;29.77;20.63;;;;;;;6.30;100.00;100319.28;5117013;28;20299;-76
2021/10/11 00:32:24;;;;;;;23.45;18.52;;;;;;;6.57;100.00;100310.41;5114727;28;20188;-76
2021/10/11 00:34:51;;;;;;;26.13;20.10;;;;;;;6.38;100.00;100315.47;5113509;28;20223;-76
2021/10/11 00:37:18;;;;;;;27.05;21.10;;;;;;;6.20;100.00;100310.66;5103883;28;20298;-76
2021/10/11 00:39:46;;;;;;;29.65;20.33;;;;;;;6.17;100.00;100311.63;5115860;28;20290;-77
2021/10/11 00:42:13;;;;;;;25.67;19.30;;;;;;;6.30;100.00;100305.91;5113181;28;20187;-75
2021/10/11 00:44:39;;;;;;;27.42;18.75;;;;;;;6.25;100.00;100300.69;5115030;28;20196;-76
2021/10/11 00:47:06;;;;;;;24.73;18.90;;;;;;;6.17;100.00;100310.72;5113453;28;20204;-77
2021/10/11 00:49:33;;;;;;;22.88;17.98;;;;;;;6.02;100.00;100310.25;5117202;28;20187;-77
2021/10/11 00:51:59;;;;;;;19.05;16.45;;;;;;;6.04;100.00;100299.53;5116679;28;20195;-77
2021/10/11 00:54:27;;;;;;;23.90;18.08;;;;;;;5.95;100.00;100300.66;5116043;28;20239;-77
2021/10/11 00:56:56;;;;;;;21.95;18.42;;;;;;;5.93;100.00;100302.44;5116666;28;20184;-77
2021/10/11 00:59:22;;;;;;;22.15;17.50;;;;;;;6.15;100.00;100304.53;5119677;28;20196;-76
2021/10/11 01:01:49;;;;;;;22.35;17.55;;;;;;;6.13;100.00;100309.94;5127213;28;20941;-77
2021/10/11 01:04:15;;;;;;;21.70;17.17;;;;;;;6.09;100.00;100313.63;5117348;28;20230;-77
2021/10/11 01:06:44;;;;;;;23.38;17.48;;;;;;;6.02;100.00;100306.72;5124054;28;20203;-77
2021/10/11 01:09:12;;;;;;;24.35;18.40;;;;;;;6.12;100.00;100309.97;5113917;28;20282;-76
2021/10/11 01:11:39;;;;;;;23.50;18.40;;;;;;;6.24;99.88;100307.84;5110971;28;20198;-77
2021/10/11 01:14:08;;;;;;;27.95;19.17;;;;;;;6.09;99.60;100305.59;5111399;28;20633;-76
2021/10/11 01:16:36;;;;;;;23.90;18.77;;;;;;;6.03;99.87;100303.97;5114033;28;20192;-76
2021/10/11 01:19:03;;;;;;;21.55;17.05;;;;;;;6.07;99.81;100298.56;5109730;28;20185;-76
2021/10/11 01:21:31;;;;;;;24.42;18.20;;;;;;;6.05;99.70;100291.44;5123854;28;20207;-74
2021/10/11 01:23:58;;;;;;;23.40;17.25;;;;;;;6.21;99.55;100289.19;5124302;28;20571;-76
2021/10/11 01:26:35;;;;;;;21.20;17.15;;;;;;;6.29;98.05;100286.31;5116697;28;20187;-77
2021/10/11 01:29:02;;;;;;;22.95;18.75;;;;;;;5.99;99.79;100290.72;5110661;28;20235;-75
2021/10/11 01:31:28;;;;;;;24.48;18.38;;;;;;;5.97;100.00;100293.47;5112333;28;20181;-77
2021/10/11 01:33:55;;;;;;;22.52;17.85;;;;;;;5.98;100.00;100289.00;5111068;28;20279;-77
2021/10/11 01:36:22;;;;;;;20.85;17.35;;;;;;;5.77;100.00;100285.97;5111824;28;20280;-77
2021/10/11 01:38:53;;;;;;;24.42;18.25;;;;;;;5.75;100.00;100287.78;5120323;28;20270;-77
2021/10/11 01:41:19;;;;;;;24.85;17.13;;;;;;;5.71;100.00;100291.47;5117558;28;20218;-76
2021/10/11 01:43:46;;;;;;;27.08;18.58;;;;;;;5.78;100.00;100284.16;5116855;28;20219;-78
2021/10/11 01:46:13;;;;;;;21.48;17.27;;;;;;;5.93;100.00;100290.88;5120129;28;20260;-76
2021/10/11 01:48:40;;;;;;;22.95;17.73;;;;;;;5.96;100.00;100288.16;5113680;28;20189;-76
2021/10/11 01:51:06;;;;;;;23.10;16.95;;;;;;;5.94;99.76;100281.94;5110382;28;20177;-77
2021/10/11 01:53:33;;;;;;;20.98;17.50;;;;;;;5.97;99.57;100279.19;5103383;28;20215;-76
2021/10/11 01:56:01;;;;;;;23.58;16.95;;;;;;;6.04;98.26;100284.34;5120207;28;20219;-77
2021/10/11 01:58:27;;;;;;;26.15;19.00;;;;;;;5.79;98.59;100278.78;5119409;28;20207;-77
2021/10/11 02:00:55;;;;;;;23.98;18.77;;;;;;;5.82;99.09;100285.84;5116388;28;20204;-78
2021/10/11 02:03:21;;;;;;;20.75;17.30;;;;;;;5.77;98.94;100285.09;5107621;28;20205;-77
2021/10/11 02:05:48;;;;;;;25.33;17.60;;;;;;;5.90;98.50;100281.16;5110984;28;20190;-76
2021/10/11 02:08:15;;;;;;;24.58;18.15;;;;;;;5.80;98.63;100280.53;5117106;28;20196;-75
2021/10/11 02:10:41;;;;;;;21.92;16.65;;;;;;;5.80;98.35;100285.00;5121315;28;20187;-77
2021/10/11 02:13:09;;;;;;;23.40;16.92;;;;;;;5.87;97.92;100283.91;5112344;28;20206;-77
2021/10/11 02:15:36;;;;;;;24.95;18.30;;;;;;;5.88;97.77;100280.31;5121847;28;20190;-77
2021/10/11 02:18:03;;;;;;;28.52;17.80;;;;;;;5.72;97.94;100287.00;5117198;28;20188;-78
2021/10/11 02:20:30;;;;;;;23.48;17.17;;;;;;;5.69;98.87;100297.78;5113342;28;20290;-76
2021/10/11 02:22:57;;;;;;;21.58;16.75;;;;;;;5.87;98.40;100297.28;5113340;28;20187;-76
2021/10/11 02:25:24;;;;;;;22.70;16.08;;;;;;;5.74;98.11;100296.72;5114647;28;20195;-75
2021/10/11 02:27:50;;;;;;;23.15;17.35;;;;;;;5.61;99.20;100290.84;5122272;28;20190;-77
2021/10/11 02:30:18;;;;;;;22.38;17.48;;;;;;;5.62;98.89;100283.69;5119899;28;20339;-76
2021/10/11 02:32:45;;;;;;;23.25;17.88;;;;;;;5.56;98.73;100287.44;5106079;28;20350;-76
2021/10/11 02:35:13;;;;;;;22.95;17.65;;;;;;;5.63;98.63;100278.31;5110392;28;20191;-76
2021/10/11 02:37:42;;;;;;;22.73;17.25;;;;;;;5.55;98.27;100280.31;5123931;28;20255;-76
2021/10/11 02:40:10;;;;;;;20.65;17.33;;;;;;;5.65;98.34;100283.59;5116712;28;20239;-76
2021/10/11 02:42:37;;;;;;;21.88;17.20;;;;;;;5.85;96.75;100280.41;5126688;28;20306;-77
2021/10/11 02:45:04;;;;;;;20.35;16.30;;;;;;;5.72;96.65;100276.31;5125652;28;20187;-76
2021/10/11 02:47:32;;;;;;;21.80;16.75;;;;;;;5.60;96.92;100278.38;5119192;28;20885;-76
2021/10/11 02:49:59;;;;;;;21.35;17.77;;;;;;;5.57;97.41;100278.47;5115123;28;20235;-76
2021/10/11 02:52:28;;;;;;;22.90;17.48;;;;;;;5.46;98.19;100280.56;5109787;28;20192;-77
2021/10/11 02:54:54;;;;;;;21.60;17.02;;;;;;;5.28;99.42;100299.72;5119495;28;20188;-78
2021/10/11 02:57:21;;;;;;;22.52;17.65;;;;;;;5.41;98.80;100295.84;5117358;28;20197;-76
2021/10/11 02:59:48;;;;;;;21.52;17.13;;;;;;;5.45;98.08;100286.84;5118597;28;20282;-76
2021/10/11 03:02:14;;;;;;;21.55;16.67;;;;;;;5.61;97.05;100274.81;5107353;28;20199;-77
2021/10/11 03:04:42;;;;;;;23.08;17.20;;;;;;;5.76;96.02;100277.97;5113992;28;20270;-76
2021/10/11 03:07:09;;;;;;;22.65;17.00;;;;;;;5.80;96.00;100271.63;5113181;28;20262;-76
2021/10/11 03:09:35;;;;;;;22.23;16.23;;;;;;;5.65;96.09;100272.91;5113211;28;20544;-76
2021/10/11 03:12:02;;;;;;;20.20;17.17;;;;;;;5.54;97.18;100272.34;5115137;28;20641;-76
2021/10/11 03:14:29;;;;;;;23.42;18.13;;;;;;;5.44;98.18;100274.38;5113656;28;20459;-77
2021/10/11 03:16:55;;;;;;;23.40;17.88;;;;;;;5.36;98.96;100263.91;5121259;28;20191;-77
2021/10/11 03:19:22;;;;;;;21.77;18.17;;;;;;;5.23;100.00;100266.00;5117763;28;20202;-77
2021/10/11 03:21:50;;;;;;;23.15;17.58;;;;;;;5.32;100.00;100264.03;5113579;28;20254;-78
2021/10/11 03:24:16;;;;;;;23.40;16.08;;;;;;;5.23;100.00;100258.00;5118477;28;20201;-76
2021/10/11 03:26:43;;;;;;;21.88;16.95;;;;;;;5.30;100.00;100260.53;5114132;28;20215;-76
2021/10/11 03:29:10;;;;;;;22.40;18.13;;;;;;;5.07;100.00;100253.09;5114024;28;20326;-75
2021/10/11 03:31:36;;;;;;;23.75;17.75;;;;;;;5.12;100.00;100252.06;5115245;28;20267;-77
2021/10/11 03:34:04;;;;;;;21.40;17.65;;;;;;;4.98;100.00;100244.41;5104842;28;20191;-77
2021/10/11 03:36:30;;;;;;;21.98;17.02;;;;;;;5.01;100.00;100246.97;5119024;28;20210;-77
2021/10/11 03:38:58;;;;;;;23.75;17.60;;;;;;;5.01;100.00;100251.44;5120182;28;20250;-77
2021/10/11 03:41:25;;;;;;;22.88;18.73;;;;;;;4.88;100.00;100253.53;5118941;28;20202;-77
2021/10/11 03:43:52;;;;;;;25.25;17.58;;;;;;;4.93;100.00;100237.41;5120559;28;20198;-77
2021/10/11 03:46:18;;;;;;;22.90;17.67;;;;;;;4.96;100.00;100242.69;5112625;28;20183;-77
2021/10/11 03:48:45;;;;;;;26.23;18.48;;;;;;;4.84;100.00;100245.63;5115194;28;20263;-77
2021/10/11 03:51:11;;;;;;;23.15;18.23;;;;;;;4.97;100.00;100234.63;5117434;28;20186;-77
2021/10/11 03:53:38;;;;;;;20.67;17.45;;;;;;;5.11;100.00;100236.06;5118469;28;20183;-77
2021/10/11 03:56:06;;;;;;;24.70;18.05;;;;;;;5.08;99.65;100239.69;5114485;28;20191;-77
2021/10/11 03:58:33;;;;;;;21.05;17.10;;;;;;;4.91;100.00;100244.59;5103698;28;20194;-77
2021/10/11 04:01:00;;;;;;;19.45;16.15;;;;;;;4.80;100.00;100253.72;5100507;28;20279;-77
2021/10/11 04:03:26;;;;;;;21.52;17.63;;;;;;;4.98;100.00;100241.72;5109821;28;20224;-77
2021/10/11 04:05:53;;;;;;;23.30;17.98;;;;;;;4.90;100.00;100251.72;5117518;28;20643;-77
2021/10/11 04:08:21;;;;;;;21.10;17.08;;;;;;;4.84;100.00;100258.97;5118650;28;20253;-77
2021/10/11 04:10:54;;;;;;;27.95;17.10;;;;;;;4.78;100.00;100257.34;5117164;28;20198;-78
2021/10/11 04:13:22;;;;;;;21.95;17.42;;;;;;;4.88;100.00;100252.66;5110597;28;20199;-77
2021/10/11 04:15:49;;;;;;;24.00;16.42;;;;;;;5.03;99.88;100243.41;5116882;28;20194;-77
2021/10/11 04:18:16;;;;;;;23.88;16.85;;;;;;;5.05;98.61;100244.25;5105018;28;20605;-77
2021/10/11 04:20:42;;;;;;;23.33;16.75;;;;;;;4.95;99.26;100257.84;5118082;28;20233;-77
2021/10/11 04:23:09;;;;;;;21.20;16.35;;;;;;;4.93;99.24;100258.75;5117032;28;20199;-77
2021/10/11 04:25:36;;;;;;;22.60;17.10;;;;;;;4.98;98.30;100259.53;5116834;28;20278;-78
2021/10/11 04:28:03;;;;;;;20.52;16.52;;;;;;;4.96;97.41;100259.56;5115224;28;20195;-77
2021/10/11 04:30:31;;;;;;;23.55;18.13;;;;;;;5.05;96.93;100261.16;5110101;28;20225;-77
2021/10/11 04:32:58;;;;;;;24.35;18.38;;;;;;;4.93;96.88;100277.44;5114333;28;20281;-77
2021/10/11 04:35:25;;;;;;;23.45;17.50;;;;;;;4.87;96.91;100272.28;5117530;28;20211;-77
2021/10/11 04:37:52;;;;;;;27.70;17.58;;;;;;;4.71;98.82;100279.75;5118061;28;20241;-76
2021/10/11 04:40:19;;;;;;;20.52;16.83;;;;;;;4.64;99.07;100281.69;5121461;28;20289;-75
2021/10/11 04:42:46;;;;;;;19.63;16.10;;;;;;;4.90;98.82;100291.75;5114285;28;20199;-76
2021/10/11 04:45:13;;;;;;;20.60;17.05;;;;;;;4.99;97.96;100286.19;5111836;28;20188;-77
2021/10/11 04:47:41;;;;;;;23.73;18.13;;;;;;;5.16;96.81;100287.56;5115568;28;20277;-77
2021/10/11 04:50:08;;;;;;;23.90;17.67;;;;;;;5.24;95.88;100282.91;5112643;28;20279;-76
2021/10/11 04:52:35;;;;;;;21.48;16.75;;;;;;;5.34;95.05;100288.91;5103371;28;20542;-76
2021/10/11 04:55:02;;;;;;;24.48;16.95;;;;;;;5.43;95.73;100296.69;5111460;27;20199;-77
2021/10/11 04:57:28;;;;;;;20.20;16.00;;;;;;;5.42;94.75;100289.56;5113121;28;20282;-76
2021/10/11 04:59:56;;;;;;;22.98;16.50;;;;;;;5.30;94.84;100285.44;5109958;28;20314;-77
2021/10/11 05:02:22;;;;;;;24.55;17.92;;;;;;;5.47;94.49;100281.44;5115074;28;20222;-77
2021/10/11 05:04:50;;;;;;;23.10;17.60;;;;;;;5.43;93.97;100283.31;5107387;28;20241;-78
2021/10/11 05:07:17;;;;;;;21.98;17.02;;;;;;;5.26;94.06;100277.53;5103334;28;20184;-77
2021/10/11 05:09:43;;;;;;;27.90;16.48;;;;;;;5.27;93.66;100273.94;5118456;28;20644;-76
2021/10/11 05:12:10;;;;;;;27.73;17.70;;;;;;;5.28;94.57;100279.25;5114941;28;20233;-77
2021/10/11 05:14:36;;;;;;;24.30;17.23;;;;;;;5.06;94.85;100278.91;5110035;28;20515;-76
2021/10/11 05:17:03;;;;;;;22.85;18.05;;;;;;;5.10;95.57;100283.25;5106461;28;20201;-77
2021/10/11 05:19:30;;;;;;;24.30;17.52;;;;;;;5.13;95.50;100282.28;5101025;28;20651;-77
2021/10/11 05:21:58;;;;;;;22.98;18.15;;;;;;;5.07;95.57;100280.66;5100884;28;20286;-77
2021/10/11 05:24:25;;;;;;;21.42;16.42;;;;;;;5.16;95.48;100288.44;5114902;27;20214;-77
2021/10/11 05:26:52;;;;;;;24.25;17.73;;;;;;;5.03;96.57;100291.47;5101062;28;20608;-76
2021/10/11 05:29:19;;;;;;;24.30;18.38;;;;;;;5.21;95.32;100288.34;5113093;28;20237;-78
2021/10/11 05:31:48;;;;;;;25.73;18.05;;;;;;;5.06;94.86;100289.56;5112634;28;20195;-77
2021/10/11 05:34:15;;;;;;;26.40;18.50;;;;;;;5.12;94.59;100294.78;5106495;28;20194;-78
2021/10/11 05:36:42;;;;;;;23.63;18.17;;;;;;;5.37;93.91;100289.69;5113993;28;20191;-77
2021/10/11 05:39:10;;;;;;;24.27;18.10;;;;;;;5.27;93.71;100289.94;5108967;28;20199;-76
2021/10/11 05:41:37;;;;;;;25.63;18.67;;;;;;;5.23;94.50;100284.69;5112446;28;20203;-76
2021/10/11 05:44:04;;;;;;;21.90;17.77;;;;;;;5.18;95.75;100289.28;5112882;28;20191;-76
2021/10/11 05:46:31;;;;;;;23.10;17.48;;;;;;;5.33;95.06;100282.66;5115429;28;20199;-78
2021/10/11 05:48:58;;;;;;;23.63;17.85;;;;;;;5.42;94.83;100278.88;5114162;28;20179;-77
2021/10/11 05:51:25;;;;;;;20.83;17.17;;;;;;;5.33;95.29;100289.81;5104806;28;20202;-77
2021/10/11 05:53:51;;;;;;;24.17;17.70;;;;;;;5.19;95.45;100292.81;5114743;28;20211;-76
2021/10/11 05:56:19;;;;;;;26.27;17.42;;;;;;;5.22;96.04;100290.06;5112639;28;20209;-77
2021/10/11 05:58:46;;;;;;;22.60;17.08;;;;;;;5.26;95.74;100285.53;5115829;28;20209;-76
2021/10/11 06:01:12;;;;;;;23.25;16.48;;;;;;;5.20;95.57;100290.13;5110771;28;20230;-76
2021/10/11 06:03:39;;;;;;;23.63;17.77;;;;;;;5.31;95.87;100291.63;5109805;28;20198;-78
2021/10/11 06:06:09;;;;;;;25.17;19.10;;;;;;;5.32;96.95;100286.25;5105670;28;20281;-77
2021/10/11 06:08:36;;;;;;;23.17;16.45;;;;;;;5.25;97.61;100289.16;5102875;28;20198;-77
2021/10/11 06:11:02;;;;;;;27.80;18.85;;;;;;;5.32;98.13;100293.41;5107760;28;20326;-78
2021/10/11 06:13:30;;;;;;;29.60;19.50;;;;;;;5.34;98.45;100289.78;5106732;28;20198;-78
2021/10/11 06:15:57;;;;;;;22.77;17.75;;;;;;;5.23;97.44;100297.19;5107549;28;20304;-78
2021/10/11 06:18:24;;;;;;;28.55;19.10;;;;;;;5.19;98.74;100301.72;5098655;28;20196;-78
2021/10/11 06:20:50;;;;;;;27.67;18.83;;;;;;;5.22;98.89;100314.09;5105693;28;20188;-79
2021/10/11 06:23:17;;;;;;;29.15;18.73;;;;;;;5.21;99.30;100320.38;5106270;28;20241;-75
2021/10/11 06:25:43;;;;;;;32.28;19.20;;;;;;;5.28;99.77;100315.75;5111089;28;20248;-77
2021/10/11 06:28:11;;;;;;;27.30;19.95;;;;;;;5.55;98.30;100317.72;5106248;28;20191;-78
2021/10/11 06:30:39;;;;;;;23.75;19.85;;;;;;;5.72;97.50;100311.94;5113949;28;20274;-78
2021/10/11 06:33:06;;;;;;;27.38;18.92;;;;;;;5.83;96.90;100317.88;5113221;28;20223;-78
2021/10/11 06:35:33;;;;;;;30.02;19.25;;;;;;;5.89;95.51;100318.63;5114321;28;20693;-78
2021/10/11 06:37:59;;;;;;;26.88;18.35;;;;;;;6.23;92.02;100315.91;5113821;28;20608;-78
2021/10/11 06:40:26;;;;;;;33.67;20.77;;;;;;;6.32;91.47;100312.09;5112901;28;20202;-77
2021/10/11 06:42:52;;;;;;;25.77;18.98;;;;;;;6.41;90.76;100304.66;5113109;28;20291;-77
2021/10/11 06:45:19;;;;;;;24.95;18.02;;;;;;;6.39;90.34;100314.53;5113595;28;20203;-77
2021/10/11 06:47:47;;;;;;;24.10;18.75;;;;;;;6.42;90.25;100317.13;5113056;28;20206;-77
2021/10/11 06:50:14;;;;;;;28.02;18.98;;;;;;;6.58;89.48;100327.34;5115299;28;20183;-78
2021/10/11 06:52:41;;;;;;;24.10;18.30;;;;;;;6.62;88.79;100331.69;5112526;28;20215;-79
2021/10/11 06:55:08;;;;;;;30.52;22.00;;;;;;;6.76;88.47;100321.47;5109858;28;20201;-77
2021/10/11 06:57:35;;;;;;;27.73;21.05;;;;;;;6.92;86.46;100326.31;5109283;28;20183;-79
2021/10/11 07:00:01;;;;;;;44.58;23.48;;;;;;;6.90;85.28;100318.34;5110903;28;20267;-79
2021/10/11 07:02:28;;;;;;;32.53;21.70;;;;;;;7.01;84.03;100317.97;5108520;28;20337;-77
2021/10/11 07:04:57;;;;;;;35.13;24.17;;;;;;;6.91;84.22;100320.09;5097306;28;20180;-78
2021/10/11 07:07:28;;;;;;;30.13;22.95;;;;;;;6.77;84.59;100325.00;5106294;28;20257;-78
2021/10/11 07:09:55;;;;;;;30.83;21.98;;;;;;;6.77;84.08;100331.22;5111241;28;20248;-78
2021/10/11 07:12:21;;;;;;;31.05;22.95;;;;;;;6.78;84.57;100341.00;5114308;28;20191;-79
2021/10/11 07:14:48;;;;;;;30.75;21.25;;;;;;;6.94;84.01;100333.38;5107552;28;20183;-78
2021/10/11 07:17:15;;;;;;;31.40;21.23;;;;;;;7.04;83.54;100336.66;5105082;28;20206;-78
2021/10/11 07:19:45;;;;;;;37.42;23.08;;;;;;;7.08;82.69;100349.91;5108074;28;20288;-77
2021/10/11 07:22:14;;;;;;;31.55;20.20;;;;;;;7.22;81.40;100349.44;5111690;28;20212;-77
2021/10/11 07:24:41;;;;;;;31.58;21.75;;;;;;;7.20;82.38;100351.28;5113424;28;20196;-79
2021/10/11 07:27:08;;;;;;;36.72;20.80;;;;;;;7.22;82.36;100360.16;5114477;28;20521;-79
2021/10/11 07:29:35;;;;;;;28.48;19.13;;;;;;;7.49;81.15;100357.50;5113926;28;20231;-77
2021/10/11 07:32:02;;;;;;;34.58;21.17;;;;;;;7.55;80.87;100361.78;5111699;28;20198;-79
2021/10/11 07:34:29;;;;;;;30.70;21.65;;;;;;;7.59;79.90;100366.97;5114491;28;20187;-79
2021/10/11 07:36:55;;;;;;;31.52;21.55;;;;;;;7.72;80.10;100367.44;5107366;28;20273;-76
2021/10/11 07:39:23;;;;;;;33.42;20.90;;;;;;;8.02;78.51;100370.88;5104337;28;20219;-79
2021/10/11 07:41:50;;;;;;;31.48;22.58;;;;;;;8.14;78.32;100365.06;5115668;28;20308;-79
2021/10/11 07:44:17;;;;;;;29.70;20.63;;;;;;;8.12;77.99;100372.31;5114164;28;20203;-78
2021/10/11 07:46:44;;;;;;;29.58;20.15;;;;;;;8.35;76.94;100373.28;5114668;28;20631;-79
2021/10/11 07:49:10;;;;;;;30.52;21.25;;;;;;;8.44;76.44;100372.97;5115260;28;20294;-78
2021/10/11 07:51:37;;;;;;;27.73;20.35;;;;;;;8.59;75.69;100382.25;5113573;28;20286;-78
2021/10/11 07:54:04;;;;;;;29.05;20.33;;;;;;;8.93;74.33;100372.91;5095671;28;20202;-77
2021/10/11 07:56:33;;;;;;;30.35;20.67;;;;;;;9.22;72.93;100381.63;5094750;28;20584;-79
2021/10/11 07:59:00;;;;;;;26.30;20.42;;;;;;;9.52;71.36;100368.75;5094401;28;20215;-77
2021/10/11 08:01:27;;;;;;;26.77;20.48;;;;;;;9.47;71.34;100368.94;5094252;28;20616;-78
2021/10/11 08:03:54;;;;;;;30.23;20.08;;;;;;;9.42;72.16;100386.19;5098344;28;20580;-78
2021/10/11 08:06:20;;;;;;;30.13;19.98;;;;;;;9.33;72.07;100374.00;5108166;28;20190;-78
2021/10/11 08:08:47;;;;;;;28.58;21.40;;;;;;;9.24;72.73;100366.31;5098973;28;20224;-79
2021/10/11 08:11:13;;;;;;;28.70;21.83;;;;;;;9.30;72.88;100375.00;5095619;28;20249;-78
2021/10/11 08:13:41;;;;;;;32.28;23.23;;;;;;;9.10;74.24;100372.25;5115769;28;20228;-78
2021/10/11 08:16:09;;;;;;;33.72;21.95;;;;;;;9.07;74.46;100373.25;5100573;28;20277;-79
2021/10/11 08:18:35;;;;;;;37.72;21.98;;;;;;;9.05;75.14;100374.25;5115351;28;20234;-78
2021/10/11 08:21:04;;;;;;;33.42;22.13;;;;;;;8.91;76.14;100388.19;5097027;28;20687;-78
2021/10/11 08:23:35;;;;;;;37.58;22.08;;;;;;;9.01;76.22;100400.34;5095355;28;20239;-78
2021/10/11 08:26:02;;;;;;;29.55;21.75;;;;;;;9.16;75.50;100390.81;5110120;28;20193;-78
2021/10/11 08:28:28;;;;;;;40.63;23.95;;;;;;;9.42;74.23;100388.88;5108644;28;20237;-78
2021/10/11 08:30:56;;;;;;;34.25;21.23;;;;;;;9.50;74.24;100389.47;5101600;28;20277;-78
2021/10/11 08:33:23;;;;;;;29.63;21.27;;;;;;;9.44;74.97;100387.03;5103261;28;20189;-78
2021/10/11 08:35:50;;;;;;;30.30;21.38;;;;;;;9.11;77.50;100384.72;5108978;28;20204;-77
2021/10/11 08:38:16;;;;;;;31.08;23.42;;;;;;;9.37;77.16;100386.38;5115592;28;20189;-78
2021/10/11 08:40:43;;;;;;;33.10;21.98;;;;;;;9.36;77.34;100392.69;5114543;28;20292;-78
2021/10/11 08:43:09;;;;;;;31.77;22.83;;;;;;;9.05;78.89;100385.88;5095740;28;20296;-78
2021/10/11 08:45:38;;;;;;;31.10;24.40;;;;;;;9.30;78.43;100391.13;5096020;28;20197;-78
2021/10/11 08:48:06;;;;;;;30.77;23.83;;;;;;;9.22;79.29;100392.38;5107790;28;20194;-77
2021/10/11 08:50:32;;;;;;;28.90;21.20;;;;;;;8.96;80.43;100405.03;5114146;28;20535;-77
2021/10/11 08:52:59;;;;;;;33.65;23.00;;;;;;;9.09;80.77;100405.41;5115412;28;20193;-77
2021/10/11 08:55:26;;;;;;;30.27;23.17;;;;;;;9.03;81.28;100402.97;5103402;28;20245;-78
2021/10/11 08:58:01;;;;;;;30.85;21.63;;;;;;;8.83;82.54;100396.56;5112519;28;20268;-78
2021/10/11 09:00:32;;;;;;;32.08;23.58;;;;;;;8.89;83.25;100395.47;5111183;28;20197;-79
2021/10/11 09:03:00;;;;;;;29.15;22.50;;;;;;;8.87;83.41;100402.69;5111646;28;20244;-78
2021/10/11 09:05:32;;;;;;;29.17;22.83;;;;;;;8.80;84.64;100407.44;5111277;28;20200;-77
2021/10/11 09:08:03;;;;;;;29.63;23.27;;;;;;;9.14;82.90;100403.44;5110618;28;20203;-78
2021/10/11 09:10:32;;;;;;;29.05;22.15;;;;;;;9.49;81.28;100406.50;5113645;28;20192;-78
2021/10/11 09:12:59;;;;;;;28.20;22.45;;;;;;;9.60;80.84;100404.25;5110536;28;20505;-78
2021/10/11 09:15:30;;;;;;;27.92;23.25;;;;;;;9.58;80.33;100393.56;5111056;28;20201;-78
2021/10/11 09:18:00;;;;;;;32.92;23.33;;;;;;;9.31;82.32;100387.50;5112793;28;20221;-77
2021/10/11 09:20:27;;;;;;;30.35;24.48;;;;;;;9.74;80.17;100379.47;5115699;28;20568;-77
2021/10/11 09:22:57;;;;;;;31.85;22.50;;;;;;;10.09;78.62;100379.81;5113389;28;20231;-77
2021/10/11 09:25:33;;;;;;;32.58;23.45;;;;;;;10.29;77.63;100371.75;5104507;28;20208;-77
2021/10/11 09:28:00;;;;;;;27.30;22.85;;;;;;;10.25;77.35;100378.19;5116947;28;20281;-78
2021/10/11 09:30:28;;;;;;;32.72;23.02;;;;;;;10.01;78.19;100367.53;5105956;27;21386;-77
2021/10/11 09:33:07;;;;;;;31.17;24.67;;;;;;;9.69;80.77;100366.22;5081850;28;20216;-77
2021/10/11 09:35:35;;;;;;;33.28;23.10;;;;;;;10.09;79.49;100356.44;5084068;28;20206;-77
2021/10/11 09:38:03;;;;;;;34.67;24.42;;;;;;;10.48;77.90;100361.00;5083438;28;20195;-77
2021/10/11 09:40:40;;;;;;;29.38;22.73;;;;;;;10.82;75.55;100376.47;5085094;28;20216;-77
2021/10/11 09:43:12;;;;;;;34.97;25.40;;;;;;;10.83;75.89;100375.56;5083661;28;20198;-78
2021/10/11 09:45:38;;;;;;;34.22;23.25;;;;;;;10.99;74.51;100386.47;5083094;28;20191;-78
2021/10/11 09:48:07;;;;;;;31.90;23.23;;;;;;;11.04;74.66;100387.13;5094640;28;20224;-78
2021/10/11 09:50:34;;;;;;;29.60;21.65;;;;;;;11.22;73.49;100381.81;5097364;28;20187;-77
2021/10/11 09:53:04;;;;;;;32.53;22.67;;;;;;;11.11;73.28;100392.25;5103822;28;20267;-79
2021/10/11 09:55:32;;;;;;;29.67;23.13;;;;;;;10.97;74.04;100393.75;5105833;28;20194;-78
2021/10/11 09:57:59;;;;;;;29.95;22.27;;;;;;;10.81;75.18;100400.81;5104842;28;20194;-78
2021/10/11 10:00:25;;;;;;;33.90;22.70;;;;;;;10.93;74.22;100393.97;5098730;28;20215;-78
2021/10/11 10:02:56;;;;;;;34.05;22.92;;;;;;;10.62;75.82;100392.69;5100053;28;20207;-77
2021/10/11 10:05:28;;;;;;;43.80;24.55;;;;;;;10.26;77.46;100398.75;5100249;28;20191;-78
2021/10/11 10:07:58;;;;;;;35.92;25.05;;;;;;;10.31;78.33;100406.66;5094673;28;20217;-77
2021/10/11 10:10:28;;;;;;;41.78;25.85;;;;;;;10.60;77.47;100389.19;5100555;28;20223;-77
2021/10/11 10:12:55;;;;;;;33.85;22.10;;;;;;;10.80;76.48;100388.28;5099845;28;20188;-76
2021/10/11 10:15:27;;;;;;;39.38;25.15;;;;;;;10.85;76.56;100383.53;5098100;28;20207;-77
2021/10/11 10:18:01;;;;;;;35.15;24.08;;;;;;;11.21;74.64;100382.75;5099128;28;20262;-77
2021/10/11 10:20:28;;;;;;;35.17;24.20;;;;;;;11.15;74.47;100378.53;5100569;28;20252;-76
2021/10/11 10:22:55;;;;;;;34.75;25.60;;;;;;;11.32;74.14;100374.16;5091782;28;20212;-78
2021/10/11 10:25:22;;;;;;;36.38;24.67;;;;;;;11.63;72.96;100362.72;5100081;28;20278;-78
2021/10/11 10:27:54;;;;;;;35.80;24.67;;;;;;;11.76;72.29;100371.03;5095356;28;20627;-78
2021/10/11 10:30:23;;;;;;;39.28;24.60;;;;;;;11.55;73.22;100360.38;5096304;28;20223;-78
2021/10/11 10:32:55;;;;;;;37.75;26.33;;;;;;;11.93;72.17;100360.31;5095583;28;20190;-78
2021/10/11 10:35:22;;;;;;;32.80;27.67;;;;;;;12.12;71.29;100359.34;5096843;28;20201;-76
2021/10/11 10:37:49;;;;;;;38.05;25.13;;;;;;;12.29;70.55;100354.78;5097115;28;20195;-78
2021/10/11 10:40:18;;;;;;;34.40;25.55;;;;;;;12.36;70.78;100358.03;5100002;28;20191;-77
2021/10/11 10:42:45;;;;;;;35.92;26.70;;;;;;;12.53;70.36;100367.97;5097376;28;20254;-77
2021/10/11 10:45:19;;;;;;;37.08;25.70;;;;;;;12.64;69.68;100370.06;5099849;28;20195;-78
2021/10/11 10:47:47;;;;;;;46.15;28.63;;;;;;;12.84;69.18;100363.56;5090797;28;20191;-78
2021/10/11 10:50:16;;;;;;;40.70;27.67;;;;;;;12.97;68.91;100353.81;5098449;28;20547;-77
2021/10/11 10:52:47;;;;;;;45.20;27.23;;;;;;;12.79;69.12;100366.53;5095673;28;20216;-78
2021/10/11 10:55:14;;;;;;;41.92;29.00;;;;;;;13.17;68.75;100362.66;5101349;28;20185;-77
2021/10/11 10:57:43;;;;;;;54.28;36.45;;;;;;;13.55;67.06;100355.06;5100366;28;20218;-77
2021/10/11 11:00:16;;;;;;;48.35;31.10;;;;;;;13.70;66.41;100355.97;5100467;28;20188;-78
2021/10/11 11:02:46;;;;;;;45.83;28.98;;;;;;;13.69;66.06;100359.66;5099129;28;20902;-77
2021/10/11 11:05:15;;;;;;;54.13;32.60;;;;;;;13.33;67.71;100361.69;5104422;28;20196;-78
2021/10/11 11:07:43;;;;;;;50.35;30.55;;;;;;;13.26;68.33;100362.13;5100012;28;20200;-77
2021/10/11 11:10:14;;;;;;;43.35;31.75;;;;;;;12.87;70.12;100360.72;5101133;28;20182;-78
2021/10/11 11:12:44;;;;;;;49.58;31.88;;;;;;;13.25;69.30;100336.00;5100122;28;20309;-77
2021/10/11 11:15:12;;;;;;;48.85;31.98;;;;;;;13.58;68.39;100338.63;5101205;28;20216;-78